Observations for BARI PALESE MACCHIE, Italy (LIBD)

LIBD 170020Z 36008KT 320V020 CAVOK 24/19 Q1010  
LIBD 162350Z 35012KT CAVOK 24/18 Q1010  
LIBD 162320Z 35011KT CAVOK 24/17 Q1011  
LIBD 162250Z 35012KT CAVOK 24/17 Q1010  
LIBD 162220Z 35012KT 320V020 CAVOK 24/16 Q1011  
LIBD 162150Z 35012KT CAVOK 24/16 Q1010  
LIBD 162120Z 35014KT CAVOK 24/16 Q1010  
LIBD 162050Z 34012KT CAVOK 24/17 Q1010  
LIBD 162020Z 35012KT CAVOK 24/17 Q1010  
LIBD 161950Z 35015KT CAVOK 24/16 Q1010  
LIBD 161920Z 35014KT 320V020 CAVOK 25/14 Q1010  
LIBD 161850Z 36013KT CAVOK 24/14 Q1009  
LIBD 161820Z 36014KT CAVOK 25/15 Q1009  
LIBD 161750Z 02010KT CAVOK 25/14 Q1009  
LIBD 161720Z 01010KT CAVOK 25/14 Q1009  
LIBD 161650Z 02012KT CAVOK 25/14 Q1009  
LIBD 161620Z 02011KT 340V050 CAVOK 25/14 Q1009  
LIBD 161550Z 01011KT 9999 FEW045 26/14 Q1009
LIBD 161520Z 03010KT 9999 FEW045 26/14 Q1009
LIBD 161450Z 02009KT 9999 FEW045 25/13 Q1008
LIBD 161420Z 03009KT 350V050 9999 FEW045 25/15 Q1009
LIBD 161350Z 04009KT 9999 FEW045 25/14 Q1008
LIBD 161320Z 03008KT 9999 FEW045 24/17 Q1008
LIBD 161250Z 02010KT 350V050 9999 FEW025 24/17 Q1008
LIBD 161220Z 03010KT 9999 FEW025 SCT045 24/17 Q1008 
LIBD 161150Z 04010KT 9999 FEW020CB SCT040 24/16 Q1008   
LIBD 161120Z 04011KT 9999 FEW020CB SCT045 24/17 Q1008   
LIBD 161050Z 06011KT 9999 VCSH FEW020CB SCT045 24/17 Q1008  
LIBD 161020Z 07013KT 9999 FEW025 SCT045 24/16 Q1008 
LIBD 160950Z 08014KT 9999 FEW025 SCT045 24/16 Q1008 
LIBD 160920Z 34007KT 300V060 9999 FEW020 SCT040 22/18 Q1007 
LIBD 160850Z 32005KT 260V030 9999 FEW020 SCT040 21/18 Q1008 
LIBD 160820Z 32007KT 270V350 9999 FEW015CB SCT040 20/18 Q1007 RETS  
LIBD 160750Z 30008KT 7000 -TSRA FEW015CB SCT040 20/18 Q1007 
LIBD 160720Z 33007KT 7000 -TSRA FEW015CB SCT040 21/19 Q1007 
LIBD 160650Z 34005KT 8000 -RA FEW015CB SCT045 20/17 Q1007   
LIBD 160620Z 36007KT 330V030 8000 -RA FEW015CB SCT045 21/17 Q1007   
LIBD 160550Z 28007KT 9999 FEW020CB SCT045 20/17 Q1007   
LIBD 160520Z 26005KT 9999 FEW020CB SCT045 20/17 Q1007   
LIBD 160450Z 27006KT 9999 FEW020CB BKN040 19/16 Q1008   
LIBD 160420Z 26007KT 9999 FEW020CB BKN040 20/16 Q1007   
LIBD 160350Z 26008KT 9999 FEW020CB SCT035 20/15 Q1007   
LIBD 160250Z 25008KT 9999 FEW040 19/16 Q1008
LIBD 160220Z 25006KT 9999 SCT040 18/17 Q1008
LIBD 160150Z 25007KT 9999 -RA SCT045 19/16 Q1008
LIBD 160120Z 25009KT 9999 VCTS FEW030CB SCT045 20/16 Q1008  
LIBD 160050Z 01004KT 290V060 9999 VCTS FEW030CB SCT045 23/18 Q1008  
LIBD 160020Z 05007KT 9999 VCTS FEW030CB 24/18 Q1008 
LIBD 152350Z 05008KT CAVOK 24/18 Q1008